sensor_id;sensor_type;location;lat;lon;timestamp;temperature;humidity
8662;DHT22;29684;47.722;9.388;2023-03-23T00:01:30;8.90;99.90
8662;DHT22;29684;47.722;9.388;2023-03-23T00:04:15;8.90;99.90
8662;DHT22;29684;47.722;9.388;2023-03-23T00:06:59;8.90;99.90
8662;DHT22;29684;47.722;9.388;2023-03-23T00:09:50;8.90;99.90
8662;DHT22;29684;47.722;9.388;2023-03-23T00:12:38;8.80;99.90
8662;DHT22;29684;47.722;9.388;2023-03-23T00:15:26;8.60;99.90
8662;DHT22;29684;47.722;9.388;2023-03-23T00:18:10;8.70;99.90
8662;DHT22;29684;47.722;9.388;2023-03-23T00:21:06;8.60;99.90
8662;DHT22;29684;47.722;9.388;2023-03-23T00:23:51;8.40;99.90
8662;DHT22;29684;47.722;9.388;2023-03-23T00:26:37;8.20;99.90
8662;DHT22;29684;47.722;9.388;2023-03-23T00:29:24;8.20;99.90
8662;DHT22;29684;47.722;9.388;2023-03-23T00:32:08;8.10;99.90
8662;DHT22;29684;47.722;9.388;2023-03-23T00:35:00;7.80;99.90
8662;DHT22;29684;47.722;9.388;2023-03-23T00:37:44;7.70;99.90
8662;DHT22;29684;47.722;9.388;2023-03-23T00:40:28;7.60;99.90
8662;DHT22;29684;47.722;9.388;2023-03-23T00:43:17;7.60;99.90
8662;DHT22;29684;47.722;9.388;2023-03-23T00:46:03;7.60;99.90
8662;DHT22;29684;47.722;9.388;2023-03-23T00:48:52;7.60;99.90
8662;DHT22;29684;47.722;9.388;2023-03-23T00:51:36;7.80;99.90
8662;DHT22;29684;47.722;9.388;2023-03-23T00:54:21;8.10;99.90
8662;DHT22;29684;47.722;9.388;2023-03-23T00:57:05;8.30;99.90
8662;DHT22;29684;47.722;9.388;2023-03-23T00:59:51;8.30;99.90
8662;DHT22;29684;47.722;9.388;2023-03-23T01:02:35;8.30;99.90
8662;DHT22;29684;47.722;9.388;2023-03-23T01:05:20;8.30;99.90
8662;DHT22;29684;47.722;9.388;2023-03-23T01:08:05;8.40;99.90
8662;DHT22;29684;47.722;9.388;2023-03-23T01:10:50;8.60;99.90
8662;DHT22;29684;47.722;9.388;2023-03-23T01:13:35;8.70;99.90
8662;DHT22;29684;47.722;9.388;2023-03-23T01:16:20;8.80;99.90
8662;DHT22;29684;47.722;9.388;2023-03-23T01:19:05;8.90;99.90
8662;DHT22;29684;47.722;9.388;2023-03-23T01:21:49;8.90;99.90
8662;DHT22;29684;47.722;9.388;2023-03-23T01:24:33;9.00;99.90
8662;DHT22;29684;47.722;9.388;2023-03-23T01:27:18;8.90;99.90
8662;DHT22;29684;47.722;9.388;2023-03-23T01:30:03;8.90;99.90
8662;DHT22;29684;47.722;9.388;2023-03-23T01:32:48;8.90;99.90
8662;DHT22;29684;47.722;9.388;2023-03-23T01:35:33;8.90;99.90
8662;DHT22;29684;47.722;9.388;2023-03-23T01:38:17;8.90;99.90
8662;DHT22;29684;47.722;9.388;2023-03-23T01:41:02;8.90;99.90
8662;DHT22;29684;47.722;9.388;2023-03-23T01:47:00;9.10;99.90
8662;DHT22;29684;47.722;9.388;2023-03-23T01:49:46;9.20;99.90
8662;DHT22;29684;47.722;9.388;2023-03-23T01:52:31;9.20;99.90
8662;DHT22;29684;47.722;9.388;2023-03-23T01:55:18;9.20;99.90
8662;DHT22;29684;47.722;9.388;2023-03-23T01:58:04;9.20;99.90
8662;DHT22;29684;47.722;9.388;2023-03-23T02:00:49;9.10;99.90
8662;DHT22;29684;47.722;9.388;2023-03-23T02:03:35;9.20;99.90
8662;DHT22;29684;47.722;9.388;2023-03-23T02:06:21;9.10;99.90
8662;DHT22;29684;47.722;9.388;2023-03-23T02:09:05;9.30;99.90
8662;DHT22;29684;47.722;9.388;2023-03-23T02:11:50;9.10;99.90
8662;DHT22;29684;47.722;9.388;2023-03-23T02:14:34;9.00;99.90
8662;DHT22;29684;47.722;9.388;2023-03-23T02:17:40;9.00;99.90
8662;DHT22;29684;47.722;9.388;2023-03-23T02:23:30;9.10;99.90
8662;DHT22;29684;47.722;9.388;2023-03-23T02:26:33;9.10;99.90
8662;DHT22;29684;47.722;9.388;2023-03-23T02:33:21;9.20;99.90
8662;DHT22;29684;47.722;9.388;2023-03-23T02:39:13;9.40;99.90
8662;DHT22;29684;47.722;9.388;2023-03-23T02:42:04;9.50;99.90
8662;DHT22;29684;47.722;9.388;2023-03-23T02:44:50;9.50;99.90
8662;DHT22;29684;47.722;9.388;2023-03-23T02:47:37;9.50;99.90
8662;DHT22;29684;47.722;9.388;2023-03-23T02:50:24;9.60;99.90
8662;DHT22;29684;47.722;9.388;2023-03-23T02:53:13;9.70;99.90
8662;DHT22;29684;47.722;9.388;2023-03-23T02:55:59;9.60;99.90
8662;DHT22;29684;47.722;9.388;2023-03-23T02:58:47;9.70;99.90
8662;DHT22;29684;47.722;9.388;2023-03-23T03:04:19;9.70;99.90
8662;DHT22;29684;47.722;9.388;2023-03-23T03:07:11;9.50;99.90
8662;DHT22;29684;47.722;9.388;2023-03-23T03:10:02;9.60;99.90
8662;DHT22;29684;47.722;9.388;2023-03-23T03:19:06;9.30;99.90
8662;DHT22;29684;47.722;9.388;2023-03-23T03:21:54;9.10;99.90
8662;DHT22;29684;47.722;9.388;2023-03-23T03:24:42;8.90;99.90
8662;DHT22;29684;47.722;9.388;2023-03-23T03:27:28;8.90;99.90
8662;DHT22;29684;47.722;9.388;2023-03-23T03:30:15;8.80;99.90
8662;DHT22;29684;47.722;9.388;2023-03-23T03:33:02;8.90;99.90
8662;DHT22;29684;47.722;9.388;2023-03-23T03:35:48;8.90;99.90
8662;DHT22;29684;47.722;9.388;2023-03-23T03:38:45;8.90;99.90
8662;DHT22;29684;47.722;9.388;2023-03-23T03:41:30;9.00;99.90
8662;DHT22;29684;47.722;9.388;2023-03-23T03:44:15;9.10;99.90
8662;DHT22;29684;47.722;9.388;2023-03-23T03:46:59;9.20;99.90
8662;DHT22;29684;47.722;9.388;2023-03-23T03:49:44;9.30;99.90
8662;DHT22;29684;47.722;9.388;2023-03-23T03:52:29;9.30;99.90
8662;DHT22;29684;47.722;9.388;2023-03-23T03:55:13;9.40;99.90
8662;DHT22;29684;47.722;9.388;2023-03-23T03:57:57;9.60;99.90
8662;DHT22;29684;47.722;9.388;2023-03-23T04:00:43;9.70;99.90
8662;DHT22;29684;47.722;9.388;2023-03-23T04:03:31;9.80;99.90
8662;DHT22;29684;47.722;9.388;2023-03-23T04:06:17;9.90;99.90
8662;DHT22;29684;47.722;9.388;2023-03-23T04:09:03;10.00;99.90
8662;DHT22;29684;47.722;9.388;2023-03-23T04:11:50;10.10;99.90
8662;DHT22;29684;47.722;9.388;2023-03-23T04:14:34;11.40;99.90
8662;DHT22;29684;47.722;9.388;2023-03-23T04:17:18;10.10;99.90
8662;DHT22;29684;47.722;9.388;2023-03-23T04:20:05;10.20;99.90
8662;DHT22;29684;47.722;9.388;2023-03-23T04:22:55;10.30;99.90
8662;DHT22;29684;47.722;9.388;2023-03-23T04:25:39;10.30;99.90
8662;DHT22;29684;47.722;9.388;2023-03-23T04:28:26;10.30;99.90
8662;DHT22;29684;47.722;9.388;2023-03-23T04:31:11;10.30;99.90
8662;DHT22;29684;47.722;9.388;2023-03-23T04:33:56;10.30;99.90
8662;DHT22;29684;47.722;9.388;2023-03-23T04:36:42;10.20;99.90
8662;DHT22;29684;47.722;9.388;2023-03-23T04:39:26;10.20;99.90
8662;DHT22;29684;47.722;9.388;2023-03-23T04:42:13;10.20;99.90
8662;DHT22;29684;47.722;9.388;2023-03-23T04:44:58;10.30;99.90
8662;DHT22;29684;47.722;9.388;2023-03-23T04:47:42;10.30;99.90
8662;DHT22;29684;47.722;9.388;2023-03-23T04:50:37;10.30;99.90
8662;DHT22;29684;47.722;9.388;2023-03-23T04:53:22;10.30;99.90
8662;DHT22;29684;47.722;9.388;2023-03-23T04:56:06;10.30;99.90
8662;DHT22;29684;47.722;9.388;2023-03-23T04:58:51;10.30;99.90
8662;DHT22;29684;47.722;9.388;2023-03-23T05:01:35;10.30;99.90
8662;DHT22;29684;47.722;9.388;2023-03-23T05:04:22;10.40;99.90
8662;DHT22;29684;47.722;9.388;2023-03-23T05:07:07;10.40;99.90
8662;DHT22;29684;47.722;9.388;2023-03-23T05:09:52;10.50;99.90
8662;DHT22;29684;47.722;9.388;2023-03-23T05:12:37;10.50;99.90
8662;DHT22;29684;47.722;9.388;2023-03-23T05:15:22;10.60;99.90
8662;DHT22;29684;47.722;9.388;2023-03-23T05:18:06;10.60;99.90
8662;DHT22;29684;47.722;9.388;2023-03-23T05:20:50;10.60;99.90
8662;DHT22;29684;47.722;9.388;2023-03-23T05:23:36;10.60;99.90
8662;DHT22;29684;47.722;9.388;2023-03-23T05:26:21;10.50;99.90
8662;DHT22;29684;47.722;9.388;2023-03-23T05:29:06;10.50;99.90
8662;DHT22;29684;47.722;9.388;2023-03-23T05:31:50;10.50;99.90
8662;DHT22;29684;47.722;9.388;2023-03-23T05:34:35;10.50;99.90
8662;DHT22;29684;47.722;9.388;2023-03-23T05:37:19;10.50;99.90
8662;DHT22;29684;47.722;9.388;2023-03-23T05:40:05;10.60;99.90
8662;DHT22;29684;47.722;9.388;2023-03-23T05:42:50;10.50;99.90
8662;DHT22;29684;47.722;9.388;2023-03-23T05:45:34;10.40;99.90
8662;DHT22;29684;47.722;9.388;2023-03-23T05:48:19;10.40;99.90
8662;DHT22;29684;47.722;9.388;2023-03-23T05:51:04;10.30;99.90
8662;DHT22;29684;47.722;9.388;2023-03-23T05:53:48;10.10;99.90
8662;DHT22;29684;47.722;9.388;2023-03-23T05:56:32;10.10;99.90
8662;DHT22;29684;47.722;9.388;2023-03-23T05:59:16;10.00;99.90
8662;DHT22;29684;47.722;9.388;2023-03-23T06:02:01;10.00;99.90
8662;DHT22;29684;47.722;9.388;2023-03-23T06:04:45;9.90;99.90
8662;DHT22;29684;47.722;9.388;2023-03-23T06:07:29;9.80;99.90
8662;DHT22;29684;47.722;9.388;2023-03-23T06:10:14;9.80;99.90
8662;DHT22;29684;47.722;9.388;2023-03-23T06:12:58;9.70;99.90
8662;DHT22;29684;47.722;9.388;2023-03-23T06:15:43;9.70;99.90
8662;DHT22;29684;47.722;9.388;2023-03-23T06:18:28;9.70;99.90
8662;DHT22;29684;47.722;9.388;2023-03-23T06:21:12;9.80;99.90
8662;DHT22;29684;47.722;9.388;2023-03-23T06:23:57;9.90;99.90
8662;DHT22;29684;47.722;9.388;2023-03-23T06:26:43;10.00;99.90
8662;DHT22;29684;47.722;9.388;2023-03-23T06:29:28;10.10;99.90
8662;DHT22;29684;47.722;9.388;2023-03-23T06:32:13;10.20;99.90
8662;DHT22;29684;47.722;9.388;2023-03-23T06:34:57;10.20;99.90
8662;DHT22;29684;47.722;9.388;2023-03-23T06:37:42;10.40;99.90
8662;DHT22;29684;47.722;9.388;2023-03-23T06:40:27;10.50;99.90
8662;DHT22;29684;47.722;9.388;2023-03-23T06:43:11;10.60;99.90
8662;DHT22;29684;47.722;9.388;2023-03-23T06:45:59;10.70;99.90
8662;DHT22;29684;47.722;9.388;2023-03-23T06:48:44;10.90;99.90
8662;DHT22;29684;47.722;9.388;2023-03-23T06:51:28;11.00;99.90
8662;DHT22;29684;47.722;9.388;2023-03-23T06:54:12;11.20;99.90
8662;DHT22;29684;47.722;9.388;2023-03-23T06:56:56;11.20;99.90
8662;DHT22;29684;47.722;9.388;2023-03-23T06:59:41;11.40;99.90
8662;DHT22;29684;47.722;9.388;2023-03-23T07:02:26;11.50;99.90
8662;DHT22;29684;47.722;9.388;2023-03-23T07:05:11;11.80;99.90
8662;DHT22;29684;47.722;9.388;2023-03-23T07:07:55;12.00;99.90
8662;DHT22;29684;47.722;9.388;2023-03-23T07:10:39;12.30;99.90
8662;DHT22;29684;47.722;9.388;2023-03-23T07:13:23;12.40;99.90
8662;DHT22;29684;47.722;9.388;2023-03-23T07:16:09;12.60;99.90
8662;DHT22;29684;47.722;9.388;2023-03-23T07:18:54;12.80;99.90
8662;DHT22;29684;47.722;9.388;2023-03-23T07:21:39;13.00;99.90
8662;DHT22;29684;47.722;9.388;2023-03-23T07:24:24;13.20;99.90
8662;DHT22;29684;47.722;9.388;2023-03-23T07:27:08;13.30;99.90
8662;DHT22;29684;47.722;9.388;2023-03-23T07:29:53;13.30;99.90
8662;DHT22;29684;47.722;9.388;2023-03-23T07:32:37;13.40;99.90
8662;DHT22;29684;47.722;9.388;2023-03-23T07:35:22;13.50;99.90
8662;DHT22;29684;47.722;9.388;2023-03-23T07:38:06;13.60;99.90
8662;DHT22;29684;47.722;9.388;2023-03-23T07:40:50;13.70;99.90
8662;DHT22;29684;47.722;9.388;2023-03-23T07:43:35;13.70;99.90
8662;DHT22;29684;47.722;9.388;2023-03-23T07:46:19;13.80;99.90
8662;DHT22;29684;47.722;9.388;2023-03-23T07:49:03;13.90;99.90
8662;DHT22;29684;47.722;9.388;2023-03-23T07:51:50;14.00;99.90
8662;DHT22;29684;47.722;9.388;2023-03-23T07:54:34;14.10;99.90
8662;DHT22;29684;47.722;9.388;2023-03-23T07:57:19;14.20;99.90
8662;DHT22;29684;47.722;9.388;2023-03-23T08:00:04;14.30;99.90
8662;DHT22;29684;47.722;9.388;2023-03-23T08:02:57;14.40;99.90
8662;DHT22;29684;47.722;9.388;2023-03-23T08:05:43;14.50;99.90
8662;DHT22;29684;47.722;9.388;2023-03-23T08:08:27;14.60;99.90
8662;DHT22;29684;47.722;9.388;2023-03-23T08:11:11;14.70;99.90
8662;DHT22;29684;47.722;9.388;2023-03-23T08:13:55;14.70;99.90
8662;DHT22;29684;47.722;9.388;2023-03-23T08:16:41;14.80;99.90
8662;DHT22;29684;47.722;9.388;2023-03-23T08:19:26;14.80;99.90
8662;DHT22;29684;47.722;9.388;2023-03-23T08:22:10;14.80;99.90
8662;DHT22;29684;47.722;9.388;2023-03-23T08:24:54;14.90;99.90
8662;DHT22;29684;47.722;9.388;2023-03-23T08:27:39;15.00;99.90
8662;DHT22;29684;47.722;9.388;2023-03-23T08:30:28;15.10;99.90
8662;DHT22;29684;47.722;9.388;2023-03-23T08:33:14;15.10;99.90
8662;DHT22;29684;47.722;9.388;2023-03-23T08:35:58;15.20;99.90
8662;DHT22;29684;47.722;9.388;2023-03-23T08:38:43;15.20;99.90
8662;DHT22;29684;47.722;9.388;2023-03-23T08:41:28;15.20;99.90
8662;DHT22;29684;47.722;9.388;2023-03-23T08:44:12;15.20;99.90
8662;DHT22;29684;47.722;9.388;2023-03-23T08:46:57;15.40;99.90
8662;DHT22;29684;47.722;9.388;2023-03-23T08:49:41;15.50;99.90
8662;DHT22;29684;47.722;9.388;2023-03-23T08:52:26;15.70;99.90
8662;DHT22;29684;47.722;9.388;2023-03-23T08:55:10;15.80;99.90
8662;DHT22;29684;47.722;9.388;2023-03-23T08:57:55;15.80;99.90
8662;DHT22;29684;47.722;9.388;2023-03-23T09:00:39;15.80;99.90
8662;DHT22;29684;47.722;9.388;2023-03-23T09:03:24;15.70;99.90
8662;DHT22;29684;47.722;9.388;2023-03-23T09:06:09;15.70;99.90
8662;DHT22;29684;47.722;9.388;2023-03-23T09:08:56;15.90;99.90
8662;DHT22;29684;47.722;9.388;2023-03-23T09:11:40;16.00;99.90
8662;DHT22;29684;47.722;9.388;2023-03-23T09:14:25;16.10;99.90
8662;DHT22;29684;47.722;9.388;2023-03-23T09:17:10;16.20;99.90
8662;DHT22;29684;47.722;9.388;2023-03-23T09:19:54;16.20;99.90
8662;DHT22;29684;47.722;9.388;2023-03-23T09:22:44;16.20;99.90
8662;DHT22;29684;47.722;9.388;2023-03-23T09:25:29;16.10;99.90
8662;DHT22;29684;47.722;9.388;2023-03-23T09:28:13;16.20;99.90
8662;DHT22;29684;47.722;9.388;2023-03-23T09:30:57;16.40;99.90
8662;DHT22;29684;47.722;9.388;2023-03-23T09:33:42;16.60;99.90
8662;DHT22;29684;47.722;9.388;2023-03-23T09:36:29;16.60;99.90
8662;DHT22;29684;47.722;9.388;2023-03-23T09:39:15;16.50;99.90
8662;DHT22;29684;47.722;9.388;2023-03-23T09:42:23;16.50;99.90
8662;DHT22;29684;47.722;9.388;2023-03-23T10:00:20;17.20;99.90
8662;DHT22;29684;47.722;9.388;2023-03-23T10:03:20;17.00;99.90
8662;DHT22;29684;47.722;9.388;2023-03-23T10:06:09;17.20;99.90
8662;DHT22;29684;47.722;9.388;2023-03-23T10:08:57;17.00;99.90
8662;DHT22;29684;47.722;9.388;2023-03-23T10:12:02;17.00;99.90
8662;DHT22;29684;47.722;9.388;2023-03-23T10:15:08;17.20;99.90
8662;DHT22;29684;47.722;9.388;2023-03-23T10:18:03;17.20;99.90
8662;DHT22;29684;47.722;9.388;2023-03-23T10:20:57;17.00;99.90
8662;DHT22;29684;47.722;9.388;2023-03-23T10:23:59;17.00;99.90
8662;DHT22;29684;47.722;9.388;2023-03-23T10:29:48;17.10;99.90
8662;DHT22;29684;47.722;9.388;2023-03-23T10:32:45;17.30;99.90
8662;DHT22;29684;47.722;9.388;2023-03-23T10:35:39;17.10;99.90
8662;DHT22;29684;47.722;9.388;2023-03-23T10:38:35;17.00;99.90
8662;DHT22;29684;47.722;9.388;2023-03-23T10:41:20;17.20;99.90
8662;DHT22;29684;47.722;9.388;2023-03-23T10:44:22;17.50;99.90
8662;DHT22;29684;47.722;9.388;2023-03-23T10:47:07;17.50;99.90
8662;DHT22;29684;47.722;9.388;2023-03-23T10:50:04;17.60;99.90
8662;DHT22;29684;47.722;9.388;2023-03-23T10:52:51;17.60;99.90
8662;DHT22;29684;47.722;9.388;2023-03-23T10:55:40;17.40;99.90
8662;DHT22;29684;47.722;9.388;2023-03-23T10:58:33;17.60;99.90
8662;DHT22;29684;47.722;9.388;2023-03-23T11:01:19;17.50;99.90
8662;DHT22;29684;47.722;9.388;2023-03-23T11:04:13;17.60;99.90
8662;DHT22;29684;47.722;9.388;2023-03-23T11:07:01;17.40;99.90
8662;DHT22;29684;47.722;9.388;2023-03-23T11:10:06;17.20;99.90
8662;DHT22;29684;47.722;9.388;2023-03-23T11:12:57;17.10;99.90
8662;DHT22;29684;47.722;9.388;2023-03-23T11:15:44;17.20;99.90
8662;DHT22;29684;47.722;9.388;2023-03-23T11:18:37;17.30;99.90
8662;DHT22;29684;47.722;9.388;2023-03-23T11:21:24;17.20;99.90
8662;DHT22;29684;47.722;9.388;2023-03-23T11:24:09;17.20;99.90
8662;DHT22;29684;47.722;9.388;2023-03-23T11:26:57;17.30;99.90
8662;DHT22;29684;47.722;9.388;2023-03-23T11:29:56;17.20;99.90
8662;DHT22;29684;47.722;9.388;2023-03-23T11:32:44;17.10;99.90
8662;DHT22;29684;47.722;9.388;2023-03-23T11:35:29;16.90;99.90
8662;DHT22;29684;47.722;9.388;2023-03-23T11:38:18;16.80;99.90
8662;DHT22;29684;47.722;9.388;2023-03-23T11:41:10;16.70;99.90
8662;DHT22;29684;47.722;9.388;2023-03-23T11:43:55;16.80;99.90
8662;DHT22;29684;47.722;9.388;2023-03-23T11:46:46;16.80;99.90
8662;DHT22;29684;47.722;9.388;2023-03-23T11:49:48;16.80;99.90
8662;DHT22;29684;47.722;9.388;2023-03-23T11:58:31;17.00;99.90
8662;DHT22;29684;47.722;9.388;2023-03-23T12:01:34;17.10;99.90
8662;DHT22;29684;47.722;9.388;2023-03-23T12:07:46;17.60;99.90
8662;DHT22;29684;47.722;9.388;2023-03-23T12:14:01;17.70;99.90
8662;DHT22;29684;47.722;9.388;2023-03-23T12:20:25;17.80;99.90
8662;DHT22;29684;47.722;9.388;2023-03-23T12:26:51;18.10;99.90
8662;DHT22;29684;47.722;9.388;2023-03-23T12:42:43;18.90;99.90
8662;DHT22;29684;47.722;9.388;2023-03-23T12:48:42;18.40;99.90
8662;DHT22;29684;47.722;9.388;2023-03-23T12:51:37;18.60;99.90
8662;DHT22;29684;47.722;9.388;2023-03-23T12:54:32;18.40;99.90
8662;DHT22;29684;47.722;9.388;2023-03-23T12:57:25;18.10;99.90
8662;DHT22;29684;47.722;9.388;2023-03-23T13:00:25;17.90;99.90
8662;DHT22;29684;47.722;9.388;2023-03-23T13:06:09;17.90;99.90
8662;DHT22;29684;47.722;9.388;2023-03-23T13:12:04;17.80;99.90
8662;DHT22;29684;47.722;9.388;2023-03-23T13:15:09;17.70;99.90
8662;DHT22;29684;47.722;9.388;2023-03-23T13:20:59;17.60;99.90
8662;DHT22;29684;47.722;9.388;2023-03-23T13:23:55;17.40;99.90
8662;DHT22;29684;47.722;9.388;2023-03-23T13:26:41;17.20;99.90
8662;DHT22;29684;47.722;9.388;2023-03-23T13:29:32;17.00;99.90
8662;DHT22;29684;47.722;9.388;2023-03-23T13:32:18;17.10;99.90
8662;DHT22;29684;47.722;9.388;2023-03-23T13:35:10;17.10;99.90
8662;DHT22;29684;47.722;9.388;2023-03-23T13:37:55;17.10;99.90
8662;DHT22;29684;47.722;9.388;2023-03-23T13:40:42;17.10;99.90
8662;DHT22;29684;47.722;9.388;2023-03-23T13:43:33;17.00;99.90
8662;DHT22;29684;47.722;9.388;2023-03-23T13:49:20;16.80;99.90
8662;DHT22;29684;47.722;9.388;2023-03-23T13:52:35;16.50;99.90
8662;DHT22;29684;47.722;9.388;2023-03-23T14:03:54;15.50;99.90
8662;DHT22;29684;47.722;9.388;2023-03-23T14:06:41;15.60;99.90
8662;DHT22;29684;47.722;9.388;2023-03-23T14:09:32;15.60;99.90
8662;DHT22;29684;47.722;9.388;2023-03-23T14:12:22;15.70;99.90
8662;DHT22;29684;47.722;9.388;2023-03-23T14:15:12;15.80;99.90
8662;DHT22;29684;47.722;9.388;2023-03-23T14:17:58;15.90;99.90
8662;DHT22;29684;47.722;9.388;2023-03-23T14:20:46;15.90;99.90
8662;DHT22;29684;47.722;9.388;2023-03-23T14:23:34;15.90;99.90
8662;DHT22;29684;47.722;9.388;2023-03-23T14:26:20;15.80;99.90
8662;DHT22;29684;47.722;9.388;2023-03-23T14:29:05;15.80;99.90
8662;DHT22;29684;47.722;9.388;2023-03-23T14:31:54;15.80;99.90
8662;DHT22;29684;47.722;9.388;2023-03-23T14:34:39;15.80;99.90
8662;DHT22;29684;47.722;9.388;2023-03-23T14:37:23;15.90;99.90
8662;DHT22;29684;47.722;9.388;2023-03-23T14:40:15;15.90;99.90
8662;DHT22;29684;47.722;9.388;2023-03-23T14:43:01;15.90;99.90
8662;DHT22;29684;47.722;9.388;2023-03-23T14:45:50;15.70;99.90
8662;DHT22;29684;47.722;9.388;2023-03-23T14:48:35;15.50;99.90
8662;DHT22;29684;47.722;9.388;2023-03-23T14:51:21;15.30;99.90
8662;DHT22;29684;47.722;9.388;2023-03-23T14:54:08;15.20;99.90
8662;DHT22;29684;47.722;9.388;2023-03-23T14:56:54;15.20;99.90
8662;DHT22;29684;47.722;9.388;2023-03-23T14:59:44;15.20;99.90
8662;DHT22;29684;47.722;9.388;2023-03-23T15:02:32;15.10;99.90
8662;DHT22;29684;47.722;9.388;2023-03-23T15:05:22;15.10;99.90
8662;DHT22;29684;47.722;9.388;2023-03-23T15:08:18;15.10;99.90
8662;DHT22;29684;47.722;9.388;2023-03-23T15:13:55;15.20;99.90
8662;DHT22;29684;47.722;9.388;2023-03-23T15:16:46;15.30;99.90
8662;DHT22;29684;47.722;9.388;2023-03-23T15:19:37;15.30;99.90
8662;DHT22;29684;47.722;9.388;2023-03-23T15:22:26;15.40;99.90
8662;DHT22;29684;47.722;9.388;2023-03-23T15:25:19;15.40;99.90
8662;DHT22;29684;47.722;9.388;2023-03-23T15:30:50;15.60;99.90
8662;DHT22;29684;47.722;9.388;2023-03-23T15:33:37;15.60;99.90
8662;DHT22;29684;47.722;9.388;2023-03-23T15:36:21;15.60;99.90
8662;DHT22;29684;47.722;9.388;2023-03-23T15:39:08;15.70;99.90
8662;DHT22;29684;47.722;9.388;2023-03-23T15:41:55;15.70;99.90
8662;DHT22;29684;47.722;9.388;2023-03-23T15:44:39;15.80;99.90
8662;DHT22;29684;47.722;9.388;2023-03-23T15:47:57;15.80;99.90
8662;DHT22;29684;47.722;9.388;2023-03-23T15:50:40;15.80;99.90
8662;DHT22;29684;47.722;9.388;2023-03-23T15:56:15;15.80;99.90
8662;DHT22;29684;47.722;9.388;2023-03-23T15:59:00;15.70;99.90
8662;DHT22;29684;47.722;9.388;2023-03-23T16:01:45;15.70;99.90
8662;DHT22;29684;47.722;9.388;2023-03-23T16:04:29;15.70;99.90
8662;DHT22;29684;47.722;9.388;2023-03-23T16:07:15;15.70;99.90
8662;DHT22;29684;47.722;9.388;2023-03-23T16:10:00;15.70;99.90
8662;DHT22;29684;47.722;9.388;2023-03-23T16:12:46;15.70;99.90
8662;DHT22;29684;47.722;9.388;2023-03-23T16:15:31;15.70;99.90
8662;DHT22;29684;47.722;9.388;2023-03-23T16:18:21;15.60;99.90
8662;DHT22;29684;47.722;9.388;2023-03-23T16:21:06;15.60;99.90
8662;DHT22;29684;47.722;9.388;2023-03-23T16:23:50;15.60;99.90
8662;DHT22;29684;47.722;9.388;2023-03-23T16:26:35;15.60;99.90
8662;DHT22;29684;47.722;9.388;2023-03-23T16:29:20;15.60;99.90
8662;DHT22;29684;47.722;9.388;2023-03-23T16:32:04;15.50;99.90
8662;DHT22;29684;47.722;9.388;2023-03-23T16:34:48;15.60;99.90
8662;DHT22;29684;47.722;9.388;2023-03-23T16:37:32;15.60;99.90
8662;DHT22;29684;47.722;9.388;2023-03-23T16:40:18;15.60;99.90
8662;DHT22;29684;47.722;9.388;2023-03-23T16:43:03;15.60;99.90
8662;DHT22;29684;47.722;9.388;2023-03-23T16:45:48;15.40;99.90
8662;DHT22;29684;47.722;9.388;2023-03-23T16:48:32;15.40;99.90
8662;DHT22;29684;47.722;9.388;2023-03-23T16:51:16;15.40;99.90
8662;DHT22;29684;47.722;9.388;2023-03-23T16:54:00;15.30;99.90
8662;DHT22;29684;47.722;9.388;2023-03-23T16:56:49;15.30;99.90
8662;DHT22;29684;47.722;9.388;2023-03-23T16:59:42;15.20;99.90
8662;DHT22;29684;47.722;9.388;2023-03-23T17:02:29;15.20;99.90
8662;DHT22;29684;47.722;9.388;2023-03-23T17:05:14;15.20;99.90
8662;DHT22;29684;47.722;9.388;2023-03-23T17:07:58;15.20;99.90
8662;DHT22;29684;47.722;9.388;2023-03-23T17:10:43;15.10;99.90
8662;DHT22;29684;47.722;9.388;2023-03-23T17:13:28;15.10;99.90
8662;DHT22;29684;47.722;9.388;2023-03-23T17:16:15;15.00;99.90
8662;DHT22;29684;47.722;9.388;2023-03-23T17:18:59;15.00;99.90
8662;DHT22;29684;47.722;9.388;2023-03-23T17:21:43;14.90;99.90
8662;DHT22;29684;47.722;9.388;2023-03-23T17:24:27;14.90;99.90
8662;DHT22;29684;47.722;9.388;2023-03-23T17:27:15;14.80;99.90
8662;DHT22;29684;47.722;9.388;2023-03-23T17:30:00;14.70;99.90
8662;DHT22;29684;47.722;9.388;2023-03-23T17:32:45;14.70;99.90
8662;DHT22;29684;47.722;9.388;2023-03-23T17:35:30;14.60;99.90
8662;DHT22;29684;47.722;9.388;2023-03-23T17:38:15;14.60;99.90
8662;DHT22;29684;47.722;9.388;2023-03-23T17:41:01;14.60;99.90
8662;DHT22;29684;47.722;9.388;2023-03-23T17:43:47;14.60;99.90
8662;DHT22;29684;47.722;9.388;2023-03-23T17:46:32;14.60;99.90
8662;DHT22;29684;47.722;9.388;2023-03-23T17:49:16;14.50;99.90
8662;DHT22;29684;47.722;9.388;2023-03-23T17:52:01;13.40;99.90
8662;DHT22;29684;47.722;9.388;2023-03-23T17:54:46;14.30;99.90
8662;DHT22;29684;47.722;9.388;2023-03-23T17:57:30;14.20;99.90
8662;DHT22;29684;47.722;9.388;2023-03-23T18:00:15;14.20;99.90
8662;DHT22;29684;47.722;9.388;2023-03-23T18:03:00;14.20;99.90
8662;DHT22;29684;47.722;9.388;2023-03-23T18:05:45;14.10;99.90
8662;DHT22;29684;47.722;9.388;2023-03-23T18:08:29;14.10;99.90
8662;DHT22;29684;47.722;9.388;2023-03-23T18:11:13;14.00;99.90
8662;DHT22;29684;47.722;9.388;2023-03-23T18:13:58;14.00;99.90
8662;DHT22;29684;47.722;9.388;2023-03-23T18:16:42;14.00;99.90
8662;DHT22;29684;47.722;9.388;2023-03-23T18:19:27;14.00;99.90
8662;DHT22;29684;47.722;9.388;2023-03-23T18:22:12;14.00;99.90
8662;DHT22;29684;47.722;9.388;2023-03-23T18:24:56;14.00;99.90
8662;DHT22;29684;47.722;9.388;2023-03-23T18:27:41;14.00;99.90
8662;DHT22;29684;47.722;9.388;2023-03-23T18:30:25;14.00;99.90
8662;DHT22;29684;47.722;9.388;2023-03-23T18:33:11;13.90;99.90
8662;DHT22;29684;47.722;9.388;2023-03-23T18:35:56;13.90;99.90
8662;DHT22;29684;47.722;9.388;2023-03-23T18:38:43;13.90;99.90
8662;DHT22;29684;47.722;9.388;2023-03-23T18:41:28;13.80;99.90
8662;DHT22;29684;47.722;9.388;2023-03-23T18:44:13;13.80;99.90
8662;DHT22;29684;47.722;9.388;2023-03-23T18:46:57;13.80;99.90
8662;DHT22;29684;47.722;9.388;2023-03-23T18:49:42;13.80;99.90
8662;DHT22;29684;47.722;9.388;2023-03-23T18:52:29;13.70;99.90
8662;DHT22;29684;47.722;9.388;2023-03-23T18:55:14;13.70;99.90
8662;DHT22;29684;47.722;9.388;2023-03-23T18:57:58;13.60;99.90
8662;DHT22;29684;47.722;9.388;2023-03-23T19:00:44;13.60;99.90
8662;DHT22;29684;47.722;9.388;2023-03-23T19:03:29;13.60;99.90
8662;DHT22;29684;47.722;9.388;2023-03-23T19:06:20;13.50;99.90
8662;DHT22;29684;47.722;9.388;2023-03-23T19:09:05;13.50;99.90
8662;DHT22;29684;47.722;9.388;2023-03-23T19:11:49;13.50;99.90
8662;DHT22;29684;47.722;9.388;2023-03-23T19:14:35;13.50;99.90
8662;DHT22;29684;47.722;9.388;2023-03-23T19:17:19;13.50;99.90
8662;DHT22;29684;47.722;9.388;2023-03-23T19:20:06;13.50;99.90
8662;DHT22;29684;47.722;9.388;2023-03-23T19:22:52;13.50;99.90
8662;DHT22;29684;47.722;9.388;2023-03-23T19:25:37;13.50;99.90
8662;DHT22;29684;47.722;9.388;2023-03-23T19:28:21;13.50;99.90
8662;DHT22;29684;47.722;9.388;2023-03-23T19:31:06;13.50;99.90
8662;DHT22;29684;47.722;9.388;2023-03-23T19:33:51;13.40;99.90
8662;DHT22;29684;47.722;9.388;2023-03-23T19:36:36;13.40;99.90
8662;DHT22;29684;47.722;9.388;2023-03-23T19:39:21;13.40;99.90
8662;DHT22;29684;47.722;9.388;2023-03-23T19:42:06;13.40;99.90